Terminal Aerodrome Forecast
Issued by NWS Goodland, KS

Home | Current Version | Previous Version | Text Only | Print | Product List | Glossary On
Versions: 1 2 3 4 5 6 7 8 9 10 11 12 13 14 15 16 17 18 19 20 21 22
000
FTUS43 KGLD 251720
TAFGLD
TAF
KGLD 251720Z 2518/2618 34009KT P6SM FEW150
     FM252100 04006KT P6SM FEW060 SCT120
     FM260100 11012KT P6SM SCT060 BKN120
     FM260500 10012KT 5SM BR VCTS SCT006 OVC060CB
     FM260900 11012KT 6SM -DZ BR SCT002 OVC006
     FM261300 10010G16KT 3SM -DZ BR OVC002=

USA.gov is the U.S. government's official web portal to all federal, state and local government web resources and services.